sensor_id;sensor_type;location;lat;lon;timestamp;pressure;altitude;pressure_sealevel;temperature;humidity
72570;BME280;60594;50.204;8.844;2023-07-16T00:00:33;99594.88;;;19.07;100.00
72570;BME280;60594;50.204;8.844;2023-07-16T00:03:20;99585.78;;;19.08;100.00
72570;BME280;60594;50.204;8.844;2023-07-16T00:05:51;99587.28;;;18.96;100.00
72570;BME280;60594;50.204;8.844;2023-07-16T00:08:18;99595.59;;;18.94;100.00
72570;BME280;60594;50.204;8.844;2023-07-16T00:10:44;99593.47;;;18.90;100.00
72570;BME280;60594;50.204;8.844;2023-07-16T00:13:12;99619.44;;;18.91;100.00
72570;BME280;60594;50.204;8.844;2023-07-16T00:15:40;99600.91;;;18.88;100.00
72570;BME280;60594;50.204;8.844;2023-07-16T00:18:06;99581.28;;;18.79;100.00
72570;BME280;60594;50.204;8.844;2023-07-16T00:20:33;99565.66;;;18.75;100.00
72570;BME280;60594;50.204;8.844;2023-07-16T00:23:00;99526.00;;;18.75;100.00
72570;BME280;60594;50.204;8.844;2023-07-16T00:25:27;99556.28;;;18.71;100.00
72570;BME280;60594;50.204;8.844;2023-07-16T00:27:54;99575.47;;;18.61;100.00
72570;BME280;60594;50.204;8.844;2023-07-16T00:30:21;99578.63;;;18.65;100.00
72570;BME280;60594;50.204;8.844;2023-07-16T00:32:48;99552.47;;;18.65;100.00
72570;BME280;60594;50.204;8.844;2023-07-16T00:35:15;99554.78;;;18.68;100.00
72570;BME280;60594;50.204;8.844;2023-07-16T00:37:42;99589.69;;;18.70;100.00
72570;BME280;60594;50.204;8.844;2023-07-16T00:40:09;99592.38;;;18.70;100.00
72570;BME280;60594;50.204;8.844;2023-07-16T00:42:36;99590.91;;;18.67;100.00
72570;BME280;60594;50.204;8.844;2023-07-16T00:45:09;99590.91;;;18.67;100.00
72570;BME280;60594;50.204;8.844;2023-07-16T00:47:39;99573.03;;;18.66;100.00
72570;BME280;60594;50.204;8.844;2023-07-16T00:50:07;99573.88;;;18.67;100.00
72570;BME280;60594;50.204;8.844;2023-07-16T00:52:33;99578.06;;;18.69;100.00
72570;BME280;60594;50.204;8.844;2023-07-16T00:55:01;99607.28;;;18.66;100.00
72570;BME280;60594;50.204;8.844;2023-07-16T00:57:28;99596.84;;;18.63;100.00
72570;BME280;60594;50.204;8.844;2023-07-16T00:59:55;99619.50;;;18.62;100.00
72570;BME280;60594;50.204;8.844;2023-07-16T01:02:21;99614.75;;;18.64;100.00
72570;BME280;60594;50.204;8.844;2023-07-16T01:04:49;99604.78;;;18.64;100.00
72570;BME280;60594;50.204;8.844;2023-07-16T01:07:18;99617.91;;;18.67;100.00
72570;BME280;60594;50.204;8.844;2023-07-16T01:09:46;99593.91;;;18.72;100.00
72570;BME280;60594;50.204;8.844;2023-07-16T01:12:13;99591.94;;;18.66;100.00
72570;BME280;60594;50.204;8.844;2023-07-16T01:14:40;99591.28;;;18.64;100.00
72570;BME280;60594;50.204;8.844;2023-07-16T01:17:07;99578.63;;;18.65;100.00
72570;BME280;60594;50.204;8.844;2023-07-16T01:19:35;99608.31;;;18.65;100.00
72570;BME280;60594;50.204;8.844;2023-07-16T01:22:28;99600.22;;;18.65;100.00
72570;BME280;60594;50.204;8.844;2023-07-16T01:25:10;99596.78;;;18.71;100.00
72570;BME280;60594;50.204;8.844;2023-07-16T01:27:55;99621.34;;;18.76;100.00
72570;BME280;60594;50.204;8.844;2023-07-16T01:30:26;99617.97;;;18.74;100.00
72570;BME280;60594;50.204;8.844;2023-07-16T01:32:55;99619.56;;;18.68;100.00
72570;BME280;60594;50.204;8.844;2023-07-16T01:35:22;99630.94;;;18.64;100.00
72570;BME280;60594;50.204;8.844;2023-07-16T01:37:50;99629.91;;;18.65;100.00
72570;BME280;60594;50.204;8.844;2023-07-16T01:40:16;99638.47;;;18.68;100.00
72570;BME280;60594;50.204;8.844;2023-07-16T01:42:46;99653.00;;;18.67;100.00
72570;BME280;60594;50.204;8.844;2023-07-16T01:45:13;99657.00;;;18.71;100.00
72570;BME280;60594;50.204;8.844;2023-07-16T01:50:16;99676.94;;;18.56;100.00
72570;BME280;60594;50.204;8.844;2023-07-16T01:52:43;99679.25;;;18.59;100.00
72570;BME280;60594;50.204;8.844;2023-07-16T01:55:10;99685.84;;;18.56;100.00
72570;BME280;60594;50.204;8.844;2023-07-16T01:57:37;99679.34;;;18.51;100.00
72570;BME280;60594;50.204;8.844;2023-07-16T02:00:08;99688.28;;;18.51;100.00
72570;BME280;60594;50.204;8.844;2023-07-16T02:02:46;99686.31;;;18.45;100.00
72570;BME280;60594;50.204;8.844;2023-07-16T02:05:15;99698.16;;;18.44;100.00
72570;BME280;60594;50.204;8.844;2023-07-16T02:07:42;99700.47;;;18.47;100.00
72570;BME280;60594;50.204;8.844;2023-07-16T02:10:09;99695.28;;;18.46;100.00
72570;BME280;60594;50.204;8.844;2023-07-16T02:12:36;99693.59;;;18.45;100.00
72570;BME280;60594;50.204;8.844;2023-07-16T02:15:03;99691.09;;;18.43;100.00
72570;BME280;60594;50.204;8.844;2023-07-16T02:17:35;99691.63;;;18.39;100.00
72570;BME280;60594;50.204;8.844;2023-07-16T02:20:02;99691.88;;;18.29;100.00
72570;BME280;60594;50.204;8.844;2023-07-16T02:22:36;99696.31;;;18.22;100.00
72570;BME280;60594;50.204;8.844;2023-07-16T02:25:03;99697.91;;;18.17;100.00
72570;BME280;60594;50.204;8.844;2023-07-16T02:27:31;99700.31;;;18.12;100.00
72570;BME280;60594;50.204;8.844;2023-07-16T02:29:59;99705.97;;;18.17;100.00
72570;BME280;60594;50.204;8.844;2023-07-16T02:32:25;99710.44;;;18.10;100.00
72570;BME280;60594;50.204;8.844;2023-07-16T02:34:52;99711.91;;;18.12;100.00
72570;BME280;60594;50.204;8.844;2023-07-16T02:37:19;99717.03;;;18.07;100.00
72570;BME280;60594;50.204;8.844;2023-07-16T02:39:46;99723.72;;;17.97;100.00
72570;BME280;60594;50.204;8.844;2023-07-16T02:42:15;99724.06;;;17.94;100.00
72570;BME280;60594;50.204;8.844;2023-07-16T02:44:42;99718.09;;;17.98;100.00
72570;BME280;60594;50.204;8.844;2023-07-16T02:47:11;99731.50;;;17.92;100.00
72570;BME280;60594;50.204;8.844;2023-07-16T02:49:38;99735.38;;;17.89;100.00
72570;BME280;60594;50.204;8.844;2023-07-16T02:52:06;99736.25;;;17.90;100.00
72570;BME280;60594;50.204;8.844;2023-07-16T02:54:35;99745.03;;;17.84;100.00
72570;BME280;60594;50.204;8.844;2023-07-16T02:57:02;99744.69;;;17.87;100.00
72570;BME280;60594;50.204;8.844;2023-07-16T02:59:29;99733.72;;;17.88;100.00
72570;BME280;60594;50.204;8.844;2023-07-16T03:01:56;99744.69;;;17.87;100.00
72570;BME280;60594;50.204;8.844;2023-07-16T03:04:25;99744.19;;;17.83;100.00
72570;BME280;60594;50.204;8.844;2023-07-16T03:06:52;99756.19;;;17.81;100.00
72570;BME280;60594;50.204;8.844;2023-07-16T03:09:19;99747.44;;;17.79;100.00
72570;BME280;60594;50.204;8.844;2023-07-16T03:11:46;99746.31;;;17.73;100.00
72570;BME280;60594;50.204;8.844;2023-07-16T03:14:12;99743.91;;;17.78;100.00
72570;BME280;60594;50.204;8.844;2023-07-16T03:16:40;99743.72;;;17.80;100.00
72570;BME280;60594;50.204;8.844;2023-07-16T03:19:07;99744.38;;;17.59;100.00
72570;BME280;60594;50.204;8.844;2023-07-16T03:21:33;99744.84;;;17.63;100.00
72570;BME280;60594;50.204;8.844;2023-07-16T03:24:00;99752.22;;;17.69;100.00
72570;BME280;60594;50.204;8.844;2023-07-16T03:26:26;99744.84;;;17.63;100.00
72570;BME280;60594;50.204;8.844;2023-07-16T03:28:53;99738.94;;;17.67;100.00
72570;BME280;60594;50.204;8.844;2023-07-16T03:31:22;99750.06;;;17.64;100.00
72570;BME280;60594;50.204;8.844;2023-07-16T03:33:50;99742.38;;;17.53;100.00
72570;BME280;60594;50.204;8.844;2023-07-16T03:36:18;99760.53;;;17.59;100.00
72570;BME280;60594;50.204;8.844;2023-07-16T03:38:48;99766.16;;;17.50;100.00
72570;BME280;60594;50.204;8.844;2023-07-16T03:41:14;99780.00;;;17.47;100.00
72570;BME280;60594;50.204;8.844;2023-07-16T03:43:41;99778.16;;;17.47;100.00
72570;BME280;60594;50.204;8.844;2023-07-16T03:46:20;99773.22;;;17.51;100.00
72570;BME280;60594;50.204;8.844;2023-07-16T03:48:47;99772.94;;;17.38;100.00
72570;BME280;60594;50.204;8.844;2023-07-16T03:51:14;99784.88;;;17.35;100.00
72570;BME280;60594;50.204;8.844;2023-07-16T03:53:41;99790.44;;;17.34;100.00
72570;BME280;60594;50.204;8.844;2023-07-16T03:56:07;99787.22;;;17.38;100.00
72570;BME280;60594;50.204;8.844;2023-07-16T03:58:35;99800.41;;;17.41;100.00
72570;BME280;60594;50.204;8.844;2023-07-16T04:01:02;99793.81;;;17.36;100.00
72570;BME280;60594;50.204;8.844;2023-07-16T04:03:29;99801.38;;;17.40;100.00
72570;BME280;60594;50.204;8.844;2023-07-16T04:06:06;99805.91;;;17.40;100.00
72570;BME280;60594;50.204;8.844;2023-07-16T04:08:33;99804.06;;;17.40;100.00
72570;BME280;60594;50.204;8.844;2023-07-16T04:10:59;99815.53;;;17.34;100.00
72570;BME280;60594;50.204;8.844;2023-07-16T04:13:26;99805.97;;;17.32;100.00
72570;BME280;60594;50.204;8.844;2023-07-16T04:15:53;99801.59;;;17.23;100.00
72570;BME280;60594;50.204;8.844;2023-07-16T04:18:21;99804.97;;;17.25;100.00
72570;BME280;60594;50.204;8.844;2023-07-16T04:20:48;99803.78;;;17.27;100.00
72570;BME280;60594;50.204;8.844;2023-07-16T04:23:15;99806.81;;;17.24;100.00
72570;BME280;60594;50.204;8.844;2023-07-16T04:25:41;99808.53;;;17.17;100.00
72570;BME280;60594;50.204;8.844;2023-07-16T04:28:10;99812.75;;;17.20;100.00
72570;BME280;60594;50.204;8.844;2023-07-16T04:30:36;99818.50;;;17.17;100.00
72570;BME280;60594;50.204;8.844;2023-07-16T04:33:04;99823.53;;;17.20;100.00
72570;BME280;60594;50.204;8.844;2023-07-16T04:35:32;99824.03;;;17.15;100.00
72570;BME280;60594;50.204;8.844;2023-07-16T04:38:00;99832.47;;;17.12;100.00
72570;BME280;60594;50.204;8.844;2023-07-16T04:40:28;99832.47;;;17.12;100.00
72570;BME280;60594;50.204;8.844;2023-07-16T04:42:55;99832.97;;;17.16;100.00
72570;BME280;60594;50.204;8.844;2023-07-16T04:45:22;99844.06;;;17.21;100.00
72570;BME280;60594;50.204;8.844;2023-07-16T04:47:49;99836.19;;;17.11;100.00
72570;BME280;60594;50.204;8.844;2023-07-16T04:50:15;99845.41;;;17.17;100.00
72570;BME280;60594;50.204;8.844;2023-07-16T04:52:42;99846.06;;;17.19;100.00
72570;BME280;60594;50.204;8.844;2023-07-16T04:55:09;99858.88;;;17.17;100.00
72570;BME280;60594;50.204;8.844;2023-07-16T04:57:36;99855.34;;;17.16;100.00
72570;BME280;60594;50.204;8.844;2023-07-16T05:00:03;99857.38;;;17.14;100.00
72570;BME280;60594;50.204;8.844;2023-07-16T05:02:32;99862.09;;;17.12;100.00
72570;BME280;60594;50.204;8.844;2023-07-16T05:04:59;99852.81;;;17.15;100.00
72570;BME280;60594;50.204;8.844;2023-07-16T05:07:26;99858.84;;;17.25;100.00
72570;BME280;60594;50.204;8.844;2023-07-16T05:09:52;99868.59;;;17.26;100.00
72570;BME280;60594;50.204;8.844;2023-07-16T05:12:19;99872.63;;;17.30;100.00
72570;BME280;60594;50.204;8.844;2023-07-16T05:14:47;99875.69;;;17.19;100.00
72570;BME280;60594;50.204;8.844;2023-07-16T05:17:14;99873.16;;;17.17;100.00
72570;BME280;60594;50.204;8.844;2023-07-16T05:19:41;99877.03;;;17.23;100.00
72570;BME280;60594;50.204;8.844;2023-07-16T05:22:08;99878.00;;;17.30;99.15
72570;BME280;60594;50.204;8.844;2023-07-16T05:24:35;99879.03;;;17.29;99.67
72570;BME280;60594;50.204;8.844;2023-07-16T05:27:02;99876.50;;;17.27;98.46
72570;BME280;60594;50.204;8.844;2023-07-16T05:29:28;99886.09;;;17.30;100.00
72570;BME280;60594;50.204;8.844;2023-07-16T05:31:55;99886.28;;;17.36;98.77
72570;BME280;60594;50.204;8.844;2023-07-16T05:34:21;99886.63;;;17.33;97.24
72570;BME280;60594;50.204;8.844;2023-07-16T05:36:48;99894.69;;;17.33;98.25
72570;BME280;60594;50.204;8.844;2023-07-16T05:39:15;99894.34;;;17.36;97.66
72570;BME280;60594;50.204;8.844;2023-07-16T05:41:42;99904.78;;;17.47;96.20
72570;BME280;60594;50.204;8.844;2023-07-16T05:44:10;99902.91;;;17.48;97.21
72570;BME280;60594;50.204;8.844;2023-07-16T05:46:36;99898.38;;;17.48;95.95
72570;BME280;60594;50.204;8.844;2023-07-16T05:49:03;99918.41;;;17.54;95.20
72570;BME280;60594;50.204;8.844;2023-07-16T05:51:31;99917.25;;;17.48;94.99
72570;BME280;60594;50.204;8.844;2023-07-16T05:53:57;99921.25;;;17.52;94.35
72570;BME280;60594;50.204;8.844;2023-07-16T05:56:24;99913.53;;;17.49;94.27
72570;BME280;60594;50.204;8.844;2023-07-16T05:58:51;99918.41;;;17.54;94.91
72570;BME280;60594;50.204;8.844;2023-07-16T06:01:18;99924.22;;;17.65;93.34
72570;BME280;60594;50.204;8.844;2023-07-16T06:03:45;99930.81;;;17.63;93.88
72570;BME280;60594;50.204;8.844;2023-07-16T06:06:11;99928.81;;;17.65;92.08
72570;BME280;60594;50.204;8.844;2023-07-16T06:08:38;99917.34;;;17.63;91.73
72570;BME280;60594;50.204;8.844;2023-07-16T06:11:05;99924.06;;;17.67;93.19
72570;BME280;60594;50.204;8.844;2023-07-16T06:13:32;99920.72;;;17.65;93.02
72570;BME280;60594;50.204;8.844;2023-07-16T06:15:59;99927.41;;;17.77;92.57
72570;BME280;60594;50.204;8.844;2023-07-16T06:18:25;99925.72;;;17.76;93.02
72570;BME280;60594;50.204;8.844;2023-07-16T06:20:52;99925.84;;;17.82;91.46
72570;BME280;60594;50.204;8.844;2023-07-16T06:23:19;99923.84;;;17.76;90.44
72570;BME280;60594;50.204;8.844;2023-07-16T06:25:45;99933.25;;;17.88;90.29
72570;BME280;60594;50.204;8.844;2023-07-16T06:28:15;99930.72;;;17.87;89.01
72570;BME280;60594;50.204;8.844;2023-07-16T06:30:41;99926.19;;;17.79;88.47
72570;BME280;60594;50.204;8.844;2023-07-16T06:33:08;99937.78;;;17.88;86.58
72570;BME280;60594;50.204;8.844;2023-07-16T06:35:35;99936.75;;;17.97;85.49
72570;BME280;60594;50.204;8.844;2023-07-16T06:38:02;99935.50;;;18.07;84.58
72570;BME280;60594;50.204;8.844;2023-07-16T06:40:30;99931.25;;;18.13;84.77
72570;BME280;60594;50.204;8.844;2023-07-16T06:42:57;99929.41;;;18.13;84.61
72570;BME280;60594;50.204;8.844;2023-07-16T06:45:23;99928.03;;;18.17;84.44
72570;BME280;60594;50.204;8.844;2023-07-16T06:47:50;99935.91;;;18.27;83.29
72570;BME280;60594;50.204;8.844;2023-07-16T06:50:17;99926.91;;;18.34;81.68
72570;BME280;60594;50.204;8.844;2023-07-16T06:52:43;99937.56;;;18.36;81.98
72570;BME280;60594;50.204;8.844;2023-07-16T06:55:11;99936.19;;;18.32;79.92
72570;BME280;60594;50.204;8.844;2023-07-16T06:57:38;99944.63;;;18.29;79.24
72570;BME280;60594;50.204;8.844;2023-07-16T07:00:06;99950.72;;;18.31;80.32
72570;BME280;60594;50.204;8.844;2023-07-16T07:02:37;99954.41;;;18.38;81.63
72570;BME280;60594;50.204;8.844;2023-07-16T07:05:05;99936.50;;;18.45;79.70
72570;BME280;60594;50.204;8.844;2023-07-16T07:07:33;99940.81;;;18.54;78.73
72570;BME280;60594;50.204;8.844;2023-07-16T07:10:00;99952.06;;;18.57;78.86
72570;BME280;60594;50.204;8.844;2023-07-16T07:12:28;99942.41;;;18.63;76.94
72570;BME280;60594;50.204;8.844;2023-07-16T07:14:54;99946.81;;;18.64;76.08
72570;BME280;60594;50.204;8.844;2023-07-16T07:17:21;99966.81;;;18.47;76.35
72570;BME280;60594;50.204;8.844;2023-07-16T07:19:48;99957.84;;;18.54;75.69
72570;BME280;60594;50.204;8.844;2023-07-16T07:22:14;99948.38;;;18.58;74.88
72570;BME280;60594;50.204;8.844;2023-07-16T07:24:41;99957.09;;;18.60;74.65
72570;BME280;60594;50.204;8.844;2023-07-16T07:27:08;99947.88;;;18.55;73.56
72570;BME280;60594;50.204;8.844;2023-07-16T07:29:35;99958.59;;;18.63;72.63
72570;BME280;60594;50.204;8.844;2023-07-16T07:32:02;99959.53;;;18.78;72.08
72570;BME280;60594;50.204;8.844;2023-07-16T07:34:28;99955.38;;;18.90;71.55
72570;BME280;60594;50.204;8.844;2023-07-16T07:36:55;99956.50;;;18.95;71.56
72570;BME280;60594;50.204;8.844;2023-07-16T07:39:22;99959.13;;;19.03;70.29
72570;BME280;60594;50.204;8.844;2023-07-16T07:41:48;99954.88;;;19.23;70.09
72570;BME280;60594;50.204;8.844;2023-07-16T07:44:15;99959.13;;;19.40;67.02
72570;BME280;60594;50.204;8.844;2023-07-16T07:46:42;99960.91;;;19.48;66.92
72570;BME280;60594;50.204;8.844;2023-07-16T07:49:08;99970.69;;;19.49;68.27
72570;BME280;60594;50.204;8.844;2023-07-16T07:51:36;99975.06;;;19.50;67.97
72570;BME280;60594;50.204;8.844;2023-07-16T07:54:02;99968.53;;;19.44;64.64
72570;BME280;60594;50.204;8.844;2023-07-16T07:56:29;99969.78;;;19.19;64.65
72570;BME280;60594;50.204;8.844;2023-07-16T07:58:59;99972.81;;;19.24;65.96
72570;BME280;60594;50.204;8.844;2023-07-16T08:01:25;99975.72;;;19.37;66.15
72570;BME280;60594;50.204;8.844;2023-07-16T08:03:53;99972.56;;;19.48;66.77
72570;BME280;60594;50.204;8.844;2023-07-16T08:06:20;99967.06;;;19.56;65.94
72570;BME280;60594;50.204;8.844;2023-07-16T08:08:47;99976.50;;;19.75;62.98
72570;BME280;60594;50.204;8.844;2023-07-16T08:11:13;99974.91;;;19.80;63.42
72570;BME280;60594;50.204;8.844;2023-07-16T08:13:41;99967.06;;;19.85;61.39
72570;BME280;60594;50.204;8.844;2023-07-16T08:16:07;99974.41;;;19.77;62.02
72570;BME280;60594;50.204;8.844;2023-07-16T08:18:35;99977.53;;;19.74;62.28
72570;BME280;60594;50.204;8.844;2023-07-16T08:21:04;99975.84;;;19.58;62.27
72570;BME280;60594;50.204;8.844;2023-07-16T08:23:31;99982.19;;;19.65;61.83
72570;BME280;60594;50.204;8.844;2023-07-16T08:25:57;99982.00;;;19.67;59.86
72570;BME280;60594;50.204;8.844;2023-07-16T08:28:24;99979.00;;;19.62;61.17
72570;BME280;60594;50.204;8.844;2023-07-16T08:30:51;99977.41;;;19.67;62.20
72570;BME280;60594;50.204;8.844;2023-07-16T08:33:18;99975.28;;;19.77;61.83
72570;BME280;60594;50.204;8.844;2023-07-16T08:35:45;99970.06;;;19.90;60.90
72570;BME280;60594;50.204;8.844;2023-07-16T08:38:12;99975.53;;;19.97;61.77
72570;BME280;60594;50.204;8.844;2023-07-16T08:40:39;99972.00;;;19.96;60.87
72570;BME280;60594;50.204;8.844;2023-07-16T08:43:06;99984.97;;;20.01;59.68
72570;BME280;60594;50.204;8.844;2023-07-16T08:45:40;99972.66;;;19.98;57.68
72570;BME280;60594;50.204;8.844;2023-07-16T08:48:13;99983.75;;;20.03;59.04
72570;BME280;60594;50.204;8.844;2023-07-16T08:50:41;99984.50;;;20.12;58.77
72570;BME280;60594;50.204;8.844;2023-07-16T08:53:08;99982.25;;;20.30;61.11
72570;BME280;60594;50.204;8.844;2023-07-16T08:55:35;99985.38;;;20.48;58.71
72570;BME280;60594;50.204;8.844;2023-07-16T08:58:04;99985.13;;;20.64;57.71
72570;BME280;60594;50.204;8.844;2023-07-16T09:00:31;100000.34;;;20.65;56.44
72570;BME280;60594;50.204;8.844;2023-07-16T09:02:59;99996.72;;;20.58;56.30
72570;BME280;60594;50.204;8.844;2023-07-16T09:05:26;100001.88;;;20.53;55.64
72570;BME280;60594;50.204;8.844;2023-07-16T09:07:52;100002.53;;;20.55;55.20
72570;BME280;60594;50.204;8.844;2023-07-16T09:10:19;99994.34;;;20.70;55.63
72570;BME280;60594;50.204;8.844;2023-07-16T09:12:46;100005.63;;;20.73;54.49
72570;BME280;60594;50.204;8.844;2023-07-16T09:15:17;99992.81;;;20.61;54.68
72570;BME280;60594;50.204;8.844;2023-07-16T09:17:49;100005.72;;;20.80;54.38
72570;BME280;60594;50.204;8.844;2023-07-16T09:20:16;99999.69;;;20.99;55.71
72570;BME280;60594;50.204;8.844;2023-07-16T09:22:43;100016.66;;;21.07;55.56
72570;BME280;60594;50.204;8.844;2023-07-16T09:25:10;100006.38;;;21.03;54.92
72570;BME280;60594;50.204;8.844;2023-07-16T09:27:37;100001.78;;;21.24;53.35
72570;BME280;60594;50.204;8.844;2023-07-16T09:30:05;99998.91;;;21.32;54.17
72570;BME280;60594;50.204;8.844;2023-07-16T09:32:43;99996.31;;;21.45;54.50
72570;BME280;60594;50.204;8.844;2023-07-16T09:35:13;100011.06;;;21.64;51.79
72570;BME280;60594;50.204;8.844;2023-07-16T09:37:39;100005.19;;;21.60;52.14
72570;BME280;60594;50.204;8.844;2023-07-16T09:40:08;99999.88;;;21.46;52.33
72570;BME280;60594;50.204;8.844;2023-07-16T09:42:41;100005.47;;;21.17;52.35
72570;BME280;60594;50.204;8.844;2023-07-16T09:45:12;100005.72;;;21.22;53.88
72570;BME280;60594;50.204;8.844;2023-07-16T09:47:40;100007.34;;;21.16;52.70
72570;BME280;60594;50.204;8.844;2023-07-16T09:50:08;99996.19;;;21.32;52.23
72570;BME280;60594;50.204;8.844;2023-07-16T09:52:36;100014.97;;;21.55;50.96
72570;BME280;60594;50.204;8.844;2023-07-16T09:55:04;100004.22;;;21.68;49.93
72570;BME280;60594;50.204;8.844;2023-07-16T09:57:42;100005.41;;;21.93;50.54
72570;BME280;60594;50.204;8.844;2023-07-16T10:00:10;100017.91;;;21.87;51.48
72570;BME280;60594;50.204;8.844;2023-07-16T10:02:44;100007.75;;;21.68;51.24
72570;BME280;60594;50.204;8.844;2023-07-16T10:05:29;100001.25;;;21.63;52.16
72570;BME280;60594;50.204;8.844;2023-07-16T10:07:59;100016.97;;;22.01;51.00
72570;BME280;60594;50.204;8.844;2023-07-16T10:10:38;100013.97;;;22.30;49.82
72570;BME280;60594;50.204;8.844;2023-07-16T10:13:06;100015.81;;;22.70;48.45
72570;BME280;60594;50.204;8.844;2023-07-16T10:15:33;100003.44;;;22.55;47.92
72570;BME280;60594;50.204;8.844;2023-07-16T10:18:00;100015.75;;;22.51;48.53
72570;BME280;60594;50.204;8.844;2023-07-16T10:20:35;100001.97;;;22.52;48.52
72570;BME280;60594;50.204;8.844;2023-07-16T10:23:16;100008.84;;;22.48;48.45
72570;BME280;60594;50.204;8.844;2023-07-16T10:25:59;100011.94;;;22.39;48.73
72570;BME280;60594;50.204;8.844;2023-07-16T10:28:27;100011.06;;;22.38;49.40
72570;BME280;60594;50.204;8.844;2023-07-16T10:30:55;100003.63;;;22.53;49.82
72570;BME280;60594;50.204;8.844;2023-07-16T10:33:22;100009.78;;;22.75;49.00
72570;BME280;60594;50.204;8.844;2023-07-16T10:35:49;100012.09;;;22.84;47.28
72570;BME280;60594;50.204;8.844;2023-07-16T10:38:17;100005.97;;;22.63;46.40
72570;BME280;60594;50.204;8.844;2023-07-16T10:40:45;99996.97;;;22.56;45.63
72570;BME280;60594;50.204;8.844;2023-07-16T10:43:13;100005.25;;;22.41;46.61
72570;BME280;60594;50.204;8.844;2023-07-16T10:45:41;100013.59;;;22.46;45.04
72570;BME280;60594;50.204;8.844;2023-07-16T10:48:10;100009.13;;;22.66;44.62
72570;BME280;60594;50.204;8.844;2023-07-16T10:50:39;100006.91;;;22.42;45.91
72570;BME280;60594;50.204;8.844;2023-07-16T10:53:05;100007.94;;;22.35;46.85
72570;BME280;60594;50.204;8.844;2023-07-16T10:55:33;100004.94;;;22.17;47.33
72570;BME280;60594;50.204;8.844;2023-07-16T10:58:05;100013.09;;;22.23;47.81
72570;BME280;60594;50.204;8.844;2023-07-16T11:00:38;100018.59;;;22.36;45.88
72570;BME280;60594;50.204;8.844;2023-07-16T11:03:06;99997.78;;;22.50;45.88
72570;BME280;60594;50.204;8.844;2023-07-16T11:05:32;99997.22;;;22.74;45.84
72570;BME280;60594;50.204;8.844;2023-07-16T11:08:00;100013.34;;;22.88;46.14
72570;BME280;60594;50.204;8.844;2023-07-16T11:10:31;100015.22;;;22.75;44.76
72570;BME280;60594;50.204;8.844;2023-07-16T11:12:58;100017.06;;;22.68;44.85
72570;BME280;60594;50.204;8.844;2023-07-16T11:15:34;100018.78;;;22.82;43.17
72570;BME280;60594;50.204;8.844;2023-07-16T11:18:02;100008.53;;;22.77;44.18
72570;BME280;60594;50.204;8.844;2023-07-16T11:20:31;100018.78;;;22.82;43.56
72570;BME280;60594;50.204;8.844;2023-07-16T11:22:58;100010.59;;;22.69;44.10
72570;BME280;60594;50.204;8.844;2023-07-16T11:25:26;99994.97;;;22.37;43.73
72570;BME280;60594;50.204;8.844;2023-07-16T11:27:55;100009.81;;;22.34;44.30
72570;BME280;60594;50.204;8.844;2023-07-16T11:30:23;100007.34;;;22.46;45.30
72570;BME280;60594;50.204;8.844;2023-07-16T11:32:51;99993.97;;;22.44;45.73
72570;BME280;60594;50.204;8.844;2023-07-16T11:35:20;100014.16;;;22.76;45.67
72570;BME280;60594;50.204;8.844;2023-07-16T11:37:48;99991.41;;;22.90;45.18
72570;BME280;60594;50.204;8.844;2023-07-16T11:40:16;99988.91;;;22.95;44.76
72570;BME280;60594;50.204;8.844;2023-07-16T11:42:45;99988.47;;;22.91;44.96
72570;BME280;60594;50.204;8.844;2023-07-16T11:45:16;99987.44;;;23.05;44.98
72570;BME280;60594;50.204;8.844;2023-07-16T11:47:44;99998.31;;;23.05;43.82
72570;BME280;60594;50.204;8.844;2023-07-16T11:50:11;99985.72;;;22.85;44.51
72570;BME280;60594;50.204;8.844;2023-07-16T11:52:39;99984.72;;;22.92;43.99
72570;BME280;60594;50.204;8.844;2023-07-16T11:55:07;99991.78;;;22.67;43.95
72570;BME280;60594;50.204;8.844;2023-07-16T11:57:34;99981.16;;;22.79;43.65
72570;BME280;60594;50.204;8.844;2023-07-16T12:00:02;99985.81;;;23.31;42.99
72570;BME280;60594;50.204;8.844;2023-07-16T12:02:34;99982.88;;;23.32;42.40
72570;BME280;60594;50.204;8.844;2023-07-16T12:05:01;99973.00;;;23.18;43.28
72570;BME280;60594;50.204;8.844;2023-07-16T12:07:36;99980.75;;;23.08;43.20
72570;BME280;60594;50.204;8.844;2023-07-16T12:10:04;99979.06;;;23.00;43.60
72570;BME280;60594;50.204;8.844;2023-07-16T12:12:34;99969.91;;;23.28;43.04
72570;BME280;60594;50.204;8.844;2023-07-16T12:15:07;99986.41;;;23.59;41.70
72570;BME280;60594;50.204;8.844;2023-07-16T12:17:36;99981.16;;;23.64;42.15
72570;BME280;60594;50.204;8.844;2023-07-16T12:20:04;99977.63;;;23.63;41.69
72570;BME280;60594;50.204;8.844;2023-07-16T12:22:31;99978.44;;;23.77;42.28
72570;BME280;60594;50.204;8.844;2023-07-16T12:24:58;99970.63;;;24.06;40.52
72570;BME280;60594;50.204;8.844;2023-07-16T12:27:26;99960.28;;;24.28;40.33
72570;BME280;60594;50.204;8.844;2023-07-16T12:29:52;99961.97;;;24.22;40.05
72570;BME280;60594;50.204;8.844;2023-07-16T12:32:19;99960.28;;;24.28;39.55
72570;BME280;60594;50.204;8.844;2023-07-16T12:34:46;99957.09;;;24.37;39.90
72570;BME280;60594;50.204;8.844;2023-07-16T12:37:13;99957.84;;;24.51;40.05
72570;BME280;60594;50.204;8.844;2023-07-16T12:39:43;99954.78;;;24.78;39.08
72570;BME280;60594;50.204;8.844;2023-07-16T12:42:09;99961.56;;;24.94;38.42
72570;BME280;60594;50.204;8.844;2023-07-16T12:44:36;99974.59;;;24.54;39.85
72570;BME280;60594;50.204;8.844;2023-07-16T12:47:03;99966.41;;;24.54;40.39
72570;BME280;60594;50.204;8.844;2023-07-16T12:49:31;99958.16;;;24.74;37.90
72570;BME280;60594;50.204;8.844;2023-07-16T12:51:58;99964.25;;;24.69;38.12
72570;BME280;60594;50.204;8.844;2023-07-16T12:54:24;99955.69;;;24.66;38.28
72570;BME280;60594;50.204;8.844;2023-07-16T12:56:51;99957.94;;;24.75;38.91
72570;BME280;60594;50.204;8.844;2023-07-16T12:59:17;99965.25;;;24.81;38.46
72570;BME280;60594;50.204;8.844;2023-07-16T13:01:45;99970.47;;;24.83;37.83